sensor_id;sensor_type;location;lat;lon;timestamp;temperature;humidity
48728;DHT22;34527;45.618;5.130;2023-07-31T00:01:46;16.10;99.90
48728;DHT22;34527;45.618;5.130;2023-07-31T00:04:11;16.00;99.90
48728;DHT22;34527;45.618;5.130;2023-07-31T00:06:37;16.10;99.90
48728;DHT22;34527;45.618;5.130;2023-07-31T00:09:02;16.00;99.90
48728;DHT22;34527;45.618;5.130;2023-07-31T00:11:28;16.10;99.90
48728;DHT22;34527;45.618;5.130;2023-07-31T00:13:54;16.10;99.90
48728;DHT22;34527;45.618;5.130;2023-07-31T00:16:19;16.10;99.90
48728;DHT22;34527;45.618;5.130;2023-07-31T00:18:45;16.10;99.90
48728;DHT22;34527;45.618;5.130;2023-07-31T00:21:11;16.10;99.90
48728;DHT22;34527;45.618;5.130;2023-07-31T00:23:36;16.10;99.90
48728;DHT22;34527;45.618;5.130;2023-07-31T00:26:02;16.00;99.90
48728;DHT22;34527;45.618;5.130;2023-07-31T00:28:27;16.00;99.90
48728;DHT22;34527;45.618;5.130;2023-07-31T00:30:54;15.90;99.90
48728;DHT22;34527;45.618;5.130;2023-07-31T00:33:19;15.80;99.90
48728;DHT22;34527;45.618;5.130;2023-07-31T00:35:45;15.80;99.90
48728;DHT22;34527;45.618;5.130;2023-07-31T00:38:11;15.80;99.90
48728;DHT22;34527;45.618;5.130;2023-07-31T00:40:37;15.70;99.90
48728;DHT22;34527;45.618;5.130;2023-07-31T00:43:03;15.70;99.90
48728;DHT22;34527;45.618;5.130;2023-07-31T00:45:29;15.70;99.90
48728;DHT22;34527;45.618;5.130;2023-07-31T00:47:55;15.60;99.90
48728;DHT22;34527;45.618;5.130;2023-07-31T00:50:23;15.60;99.90
48728;DHT22;34527;45.618;5.130;2023-07-31T00:52:49;15.70;99.90
48728;DHT22;34527;45.618;5.130;2023-07-31T00:55:15;15.60;99.90
48728;DHT22;34527;45.618;5.130;2023-07-31T00:57:41;15.50;99.90
48728;DHT22;34527;45.618;5.130;2023-07-31T01:00:08;15.60;99.90
48728;DHT22;34527;45.618;5.130;2023-07-31T01:02:35;15.50;99.90
48728;DHT22;34527;45.618;5.130;2023-07-31T01:05:01;15.50;99.90
48728;DHT22;34527;45.618;5.130;2023-07-31T01:10:04;15.50;99.90
48728;DHT22;34527;45.618;5.130;2023-07-31T01:12:34;15.50;99.90
48728;DHT22;34527;45.618;5.130;2023-07-31T01:15:06;15.50;99.90
48728;DHT22;34527;45.618;5.130;2023-07-31T01:17:32;15.50;99.90
48728;DHT22;34527;45.618;5.130;2023-07-31T01:20:01;15.30;99.90
48728;DHT22;34527;45.618;5.130;2023-07-31T01:28:03;15.20;99.90
48728;DHT22;34527;45.618;5.130;2023-07-31T01:30:33;15.30;99.90
48728;DHT22;34527;45.618;5.130;2023-07-31T01:33:01;15.20;99.90
48728;DHT22;34527;45.618;5.130;2023-07-31T01:35:35;15.20;99.90
48728;DHT22;34527;45.618;5.130;2023-07-31T01:38:01;15.30;99.90
48728;DHT22;34527;45.618;5.130;2023-07-31T01:40:26;15.30;99.90
48728;DHT22;34527;45.618;5.130;2023-07-31T01:42:52;15.30;99.90
48728;DHT22;34527;45.618;5.130;2023-07-31T01:45:18;15.40;99.90
48728;DHT22;34527;45.618;5.130;2023-07-31T01:47:43;15.20;99.90
48728;DHT22;34527;45.618;5.130;2023-07-31T01:50:09;15.10;99.90
48728;DHT22;34527;45.618;5.130;2023-07-31T01:52:35;15.10;99.90
48728;DHT22;34527;45.618;5.130;2023-07-31T01:55:00;15.00;99.90
48728;DHT22;34527;45.618;5.130;2023-07-31T01:57:26;15.00;99.90
48728;DHT22;34527;45.618;5.130;2023-07-31T01:59:52;14.80;99.90
48728;DHT22;34527;45.618;5.130;2023-07-31T02:02:19;14.80;99.90
48728;DHT22;34527;45.618;5.130;2023-07-31T02:04:45;14.90;99.90
48728;DHT22;34527;45.618;5.130;2023-07-31T02:07:10;15.00;99.90
48728;DHT22;34527;45.618;5.130;2023-07-31T02:09:36;15.00;99.90
48728;DHT22;34527;45.618;5.130;2023-07-31T02:12:02;15.10;99.90
48728;DHT22;34527;45.618;5.130;2023-07-31T02:14:27;15.00;99.90
48728;DHT22;34527;45.618;5.130;2023-07-31T02:16:53;15.10;99.90
48728;DHT22;34527;45.618;5.130;2023-07-31T02:19:18;15.10;99.90
48728;DHT22;34527;45.618;5.130;2023-07-31T02:21:44;15.10;99.90
48728;DHT22;34527;45.618;5.130;2023-07-31T02:24:10;15.10;99.90
48728;DHT22;34527;45.618;5.130;2023-07-31T02:26:35;15.00;99.90
48728;DHT22;34527;45.618;5.130;2023-07-31T02:29:01;15.00;99.90
48728;DHT22;34527;45.618;5.130;2023-07-31T02:31:27;15.00;99.90
48728;DHT22;34527;45.618;5.130;2023-07-31T02:33:52;14.90;99.90
48728;DHT22;34527;45.618;5.130;2023-07-31T02:36:18;14.90;99.90
48728;DHT22;34527;45.618;5.130;2023-07-31T02:38:44;15.00;99.90
48728;DHT22;34527;45.618;5.130;2023-07-31T02:41:10;15.00;99.90
48728;DHT22;34527;45.618;5.130;2023-07-31T02:43:35;15.10;99.90
48728;DHT22;34527;45.618;5.130;2023-07-31T02:46:01;15.10;99.90
48728;DHT22;34527;45.618;5.130;2023-07-31T02:48:26;15.20;99.90
48728;DHT22;34527;45.618;5.130;2023-07-31T02:50:53;15.10;99.90
48728;DHT22;34527;45.618;5.130;2023-07-31T02:53:18;15.30;99.90
48728;DHT22;34527;45.618;5.130;2023-07-31T02:55:44;15.30;99.90
48728;DHT22;34527;45.618;5.130;2023-07-31T02:58:09;15.40;99.90
48728;DHT22;34527;45.618;5.130;2023-07-31T03:00:35;15.40;99.90
48728;DHT22;34527;45.618;5.130;2023-07-31T03:03:01;15.40;99.90
48728;DHT22;34527;45.618;5.130;2023-07-31T03:05:26;15.20;99.90
48728;DHT22;34527;45.618;5.130;2023-07-31T03:07:52;15.10;99.90
48728;DHT22;34527;45.618;5.130;2023-07-31T03:10:17;15.00;99.90
48728;DHT22;34527;45.618;5.130;2023-07-31T03:12:46;15.00;99.90
48728;DHT22;34527;45.618;5.130;2023-07-31T03:15:12;15.00;99.90
48728;DHT22;34527;45.618;5.130;2023-07-31T03:17:37;15.10;99.90
48728;DHT22;34527;45.618;5.130;2023-07-31T03:20:03;15.10;99.90
48728;DHT22;34527;45.618;5.130;2023-07-31T03:22:29;15.00;99.90
48728;DHT22;34527;45.618;5.130;2023-07-31T03:24:54;15.00;99.90
48728;DHT22;34527;45.618;5.130;2023-07-31T03:27:20;15.10;99.90
48728;DHT22;34527;45.618;5.130;2023-07-31T03:29:46;15.10;99.90
48728;DHT22;34527;45.618;5.130;2023-07-31T03:32:11;15.00;99.90
48728;DHT22;34527;45.618;5.130;2023-07-31T03:34:37;14.90;99.90
48728;DHT22;34527;45.618;5.130;2023-07-31T03:37:03;14.90;99.90
48728;DHT22;34527;45.618;5.130;2023-07-31T03:39:30;14.80;99.90
48728;DHT22;34527;45.618;5.130;2023-07-31T03:41:55;14.80;99.90
48728;DHT22;34527;45.618;5.130;2023-07-31T03:44:21;14.90;99.90
48728;DHT22;34527;45.618;5.130;2023-07-31T03:46:47;14.80;99.90
48728;DHT22;34527;45.618;5.130;2023-07-31T03:49:12;14.80;99.90
48728;DHT22;34527;45.618;5.130;2023-07-31T03:51:38;14.70;99.90
48728;DHT22;34527;45.618;5.130;2023-07-31T03:54:03;14.70;99.90
48728;DHT22;34527;45.618;5.130;2023-07-31T03:56:29;14.70;99.90
48728;DHT22;34527;45.618;5.130;2023-07-31T03:58:54;14.70;99.90
48728;DHT22;34527;45.618;5.130;2023-07-31T04:01:20;14.70;99.90
48728;DHT22;34527;45.618;5.130;2023-07-31T04:03:46;14.60;99.90
48728;DHT22;34527;45.618;5.130;2023-07-31T04:06:11;14.60;99.90
48728;DHT22;34527;45.618;5.130;2023-07-31T04:08:37;14.60;99.90
48728;DHT22;34527;45.618;5.130;2023-07-31T04:11:03;14.60;99.90
48728;DHT22;34527;45.618;5.130;2023-07-31T04:13:29;14.60;99.90
48728;DHT22;34527;45.618;5.130;2023-07-31T04:15:55;14.50;99.90
48728;DHT22;34527;45.618;5.130;2023-07-31T04:18:21;14.50;99.90
48728;DHT22;34527;45.618;5.130;2023-07-31T04:20:47;14.50;99.90
48728;DHT22;34527;45.618;5.130;2023-07-31T04:23:13;14.50;99.90
48728;DHT22;34527;45.618;5.130;2023-07-31T04:25:38;14.40;99.90
48728;DHT22;34527;45.618;5.130;2023-07-31T04:28:04;14.40;99.90
48728;DHT22;34527;45.618;5.130;2023-07-31T04:30:29;14.50;99.90
48728;DHT22;34527;45.618;5.130;2023-07-31T04:32:55;14.40;99.90
48728;DHT22;34527;45.618;5.130;2023-07-31T04:35:21;14.40;99.90
48728;DHT22;34527;45.618;5.130;2023-07-31T04:37:46;14.40;99.90
48728;DHT22;34527;45.618;5.130;2023-07-31T04:40:15;14.40;99.90
48728;DHT22;34527;45.618;5.130;2023-07-31T04:42:40;14.30;99.90
48728;DHT22;34527;45.618;5.130;2023-07-31T04:45:07;14.30;99.90
48728;DHT22;34527;45.618;5.130;2023-07-31T04:47:32;14.40;99.90
48728;DHT22;34527;45.618;5.130;2023-07-31T04:49:58;14.40;99.90
48728;DHT22;34527;45.618;5.130;2023-07-31T04:52:23;14.40;99.90
48728;DHT22;34527;45.618;5.130;2023-07-31T04:54:49;14.50;99.90
48728;DHT22;34527;45.618;5.130;2023-07-31T04:57:15;14.50;99.90
48728;DHT22;34527;45.618;5.130;2023-07-31T04:59:40;14.60;99.90
48728;DHT22;34527;45.618;5.130;2023-07-31T05:02:08;14.60;99.90
48728;DHT22;34527;45.618;5.130;2023-07-31T05:04:33;14.70;99.90
48728;DHT22;34527;45.618;5.130;2023-07-31T05:06:59;14.70;99.90
48728;DHT22;34527;45.618;5.130;2023-07-31T05:09:25;14.70;99.90
48728;DHT22;34527;45.618;5.130;2023-07-31T05:11:50;14.60;99.90
48728;DHT22;34527;45.618;5.130;2023-07-31T05:14:16;14.80;99.90
48728;DHT22;34527;45.618;5.130;2023-07-31T05:16:41;14.80;99.90
48728;DHT22;34527;45.618;5.130;2023-07-31T05:19:07;14.80;99.90
48728;DHT22;34527;45.618;5.130;2023-07-31T05:21:33;14.80;99.90
48728;DHT22;34527;45.618;5.130;2023-07-31T05:23:58;14.80;99.90
48728;DHT22;34527;45.618;5.130;2023-07-31T05:26:24;14.80;99.90
48728;DHT22;34527;45.618;5.130;2023-07-31T05:28:49;14.80;99.90
48728;DHT22;34527;45.618;5.130;2023-07-31T05:31:15;14.90;99.90
48728;DHT22;34527;45.618;5.130;2023-07-31T05:33:40;15.00;99.90
48728;DHT22;34527;45.618;5.130;2023-07-31T05:36:06;15.00;99.90
48728;DHT22;34527;45.618;5.130;2023-07-31T05:38:32;15.10;99.90
48728;DHT22;34527;45.618;5.130;2023-07-31T05:40:57;15.20;99.90
48728;DHT22;34527;45.618;5.130;2023-07-31T05:43:23;15.20;99.90
48728;DHT22;34527;45.618;5.130;2023-07-31T05:45:48;15.30;99.90
48728;DHT22;34527;45.618;5.130;2023-07-31T05:48:14;15.30;99.90
48728;DHT22;34527;45.618;5.130;2023-07-31T05:50:39;15.40;99.90
48728;DHT22;34527;45.618;5.130;2023-07-31T05:53:06;15.50;99.90
48728;DHT22;34527;45.618;5.130;2023-07-31T05:55:32;15.50;99.90
48728;DHT22;34527;45.618;5.130;2023-07-31T05:57:57;15.60;99.90
48728;DHT22;34527;45.618;5.130;2023-07-31T06:00:23;15.70;99.90
48728;DHT22;34527;45.618;5.130;2023-07-31T06:02:48;15.80;99.90
48728;DHT22;34527;45.618;5.130;2023-07-31T06:05:14;15.90;99.90
48728;DHT22;34527;45.618;5.130;2023-07-31T06:07:40;16.00;99.90
48728;DHT22;34527;45.618;5.130;2023-07-31T06:10:06;16.10;99.90
48728;DHT22;34527;45.618;5.130;2023-07-31T06:12:32;16.20;99.90
48728;DHT22;34527;45.618;5.130;2023-07-31T06:14:58;16.30;99.90
48728;DHT22;34527;45.618;5.130;2023-07-31T06:17:24;16.30;99.90
48728;DHT22;34527;45.618;5.130;2023-07-31T06:19:50;16.50;99.90
48728;DHT22;34527;45.618;5.130;2023-07-31T06:22:16;16.50;99.90
48728;DHT22;34527;45.618;5.130;2023-07-31T06:24:41;16.60;99.90
48728;DHT22;34527;45.618;5.130;2023-07-31T06:27:07;16.70;99.90
48728;DHT22;34527;45.618;5.130;2023-07-31T06:29:33;16.90;99.90
48728;DHT22;34527;45.618;5.130;2023-07-31T06:31:59;17.00;99.90
48728;DHT22;34527;45.618;5.130;2023-07-31T06:34:24;17.10;99.90
48728;DHT22;34527;45.618;5.130;2023-07-31T06:36:50;17.20;99.90
48728;DHT22;34527;45.618;5.130;2023-07-31T06:39:15;17.30;99.90
48728;DHT22;34527;45.618;5.130;2023-07-31T06:41:42;17.40;99.90
48728;DHT22;34527;45.618;5.130;2023-07-31T06:44:08;17.50;99.90
48728;DHT22;34527;45.618;5.130;2023-07-31T06:46:34;17.60;99.90
48728;DHT22;34527;45.618;5.130;2023-07-31T06:48:59;17.70;99.90
48728;DHT22;34527;45.618;5.130;2023-07-31T06:51:25;17.90;99.90
48728;DHT22;34527;45.618;5.130;2023-07-31T06:53:50;18.00;99.90
48728;DHT22;34527;45.618;5.130;2023-07-31T06:56:16;18.20;99.90
48728;DHT22;34527;45.618;5.130;2023-07-31T06:58:42;18.30;99.90
48728;DHT22;34527;45.618;5.130;2023-07-31T07:01:07;18.50;99.90
48728;DHT22;34527;45.618;5.130;2023-07-31T07:03:33;18.50;99.90
48728;DHT22;34527;45.618;5.130;2023-07-31T07:05:58;18.70;99.90
48728;DHT22;34527;45.618;5.130;2023-07-31T07:08:24;18.70;99.90
48728;DHT22;34527;45.618;5.130;2023-07-31T07:10:50;18.80;99.90
48728;DHT22;34527;45.618;5.130;2023-07-31T07:13:16;18.80;99.90
48728;DHT22;34527;45.618;5.130;2023-07-31T07:15:47;18.80;99.90
48728;DHT22;34527;45.618;5.130;2023-07-31T07:18:13;18.90;99.90
48728;DHT22;34527;45.618;5.130;2023-07-31T07:20:39;19.10;99.90
48728;DHT22;34527;45.618;5.130;2023-07-31T07:23:05;19.30;99.90
48728;DHT22;34527;45.618;5.130;2023-07-31T07:25:31;19.40;99.90
48728;DHT22;34527;45.618;5.130;2023-07-31T07:27:56;19.40;99.90
48728;DHT22;34527;45.618;5.130;2023-07-31T07:30:22;19.40;99.90
48728;DHT22;34527;45.618;5.130;2023-07-31T07:32:50;19.50;99.90
48728;DHT22;34527;45.618;5.130;2023-07-31T07:35:16;19.60;99.90
48728;DHT22;34527;45.618;5.130;2023-07-31T07:37:41;19.70;99.90
48728;DHT22;34527;45.618;5.130;2023-07-31T07:40:07;19.80;99.90
48728;DHT22;34527;45.618;5.130;2023-07-31T07:42:33;19.80;99.90
48728;DHT22;34527;45.618;5.130;2023-07-31T07:44:58;19.90;99.90
48728;DHT22;34527;45.618;5.130;2023-07-31T07:47:24;19.90;99.90
48728;DHT22;34527;45.618;5.130;2023-07-31T07:49:49;19.90;99.90
48728;DHT22;34527;45.618;5.130;2023-07-31T07:52:15;19.90;99.90
48728;DHT22;34527;45.618;5.130;2023-07-31T07:54:41;20.10;99.90
48728;DHT22;34527;45.618;5.130;2023-07-31T07:57:06;20.20;99.90
48728;DHT22;34527;45.618;5.130;2023-07-31T07:59:32;20.00;99.90
48728;DHT22;34527;45.618;5.130;2023-07-31T08:01:57;20.30;99.90
48728;DHT22;34527;45.618;5.130;2023-07-31T08:04:23;20.40;99.90
48728;DHT22;34527;45.618;5.130;2023-07-31T08:06:48;20.40;99.90
48728;DHT22;34527;45.618;5.130;2023-07-31T08:09:14;20.50;99.90
48728;DHT22;34527;45.618;5.130;2023-07-31T08:11:39;20.60;99.90
48728;DHT22;34527;45.618;5.130;2023-07-31T08:14:05;20.70;99.90
48728;DHT22;34527;45.618;5.130;2023-07-31T08:16:31;20.80;99.90
48728;DHT22;34527;45.618;5.130;2023-07-31T08:18:56;20.80;99.90
48728;DHT22;34527;45.618;5.130;2023-07-31T08:21:22;20.90;99.90
48728;DHT22;34527;45.618;5.130;2023-07-31T08:23:48;21.00;99.90
48728;DHT22;34527;45.618;5.130;2023-07-31T08:26:15;21.00;99.90
48728;DHT22;34527;45.618;5.130;2023-07-31T08:28:41;21.10;99.90
48728;DHT22;34527;45.618;5.130;2023-07-31T08:31:07;21.20;99.90
48728;DHT22;34527;45.618;5.130;2023-07-31T08:33:32;21.30;99.90
48728;DHT22;34527;45.618;5.130;2023-07-31T08:35:58;21.30;99.90
48728;DHT22;34527;45.618;5.130;2023-07-31T08:38:25;21.30;99.90
48728;DHT22;34527;45.618;5.130;2023-07-31T08:40:51;21.40;99.90
48728;DHT22;34527;45.618;5.130;2023-07-31T08:43:17;21.60;99.90
48728;DHT22;34527;45.618;5.130;2023-07-31T08:45:44;21.50;99.90
48728;DHT22;34527;45.618;5.130;2023-07-31T08:48:11;21.50;99.90
48728;DHT22;34527;45.618;5.130;2023-07-31T08:50:38;21.60;99.90
48728;DHT22;34527;45.618;5.130;2023-07-31T08:53:04;21.70;99.90
48728;DHT22;34527;45.618;5.130;2023-07-31T08:55:29;21.70;99.90
48728;DHT22;34527;45.618;5.130;2023-07-31T08:57:57;21.60;99.90
48728;DHT22;34527;45.618;5.130;2023-07-31T09:00:24;21.60;99.90
48728;DHT22;34527;45.618;5.130;2023-07-31T09:03:02;21.60;99.90
48728;DHT22;34527;45.618;5.130;2023-07-31T09:05:30;21.60;99.90
48728;DHT22;34527;45.618;5.130;2023-07-31T09:07:57;21.70;99.90
48728;DHT22;34527;45.618;5.130;2023-07-31T09:10:23;21.80;99.90
48728;DHT22;34527;45.618;5.130;2023-07-31T09:12:51;21.90;99.90
48728;DHT22;34527;45.618;5.130;2023-07-31T09:15:17;21.90;99.90
48728;DHT22;34527;45.618;5.130;2023-07-31T09:17:43;21.90;99.90
48728;DHT22;34527;45.618;5.130;2023-07-31T09:20:19;21.90;99.90
48728;DHT22;34527;45.618;5.130;2023-07-31T09:22:47;22.10;99.90
48728;DHT22;34527;45.618;5.130;2023-07-31T09:25:24;22.30;99.90
48728;DHT22;34527;45.618;5.130;2023-07-31T09:28:01;22.30;99.90
48728;DHT22;34527;45.618;5.130;2023-07-31T09:30:27;22.20;99.90
48728;DHT22;34527;45.618;5.130;2023-07-31T09:33:06;22.20;99.90
48728;DHT22;34527;45.618;5.130;2023-07-31T09:35:35;22.40;99.90
48728;DHT22;34527;45.618;5.130;2023-07-31T09:38:09;22.60;99.90
48728;DHT22;34527;45.618;5.130;2023-07-31T09:40:39;22.60;99.90
48728;DHT22;34527;45.618;5.130;2023-07-31T09:43:07;22.40;99.90
48728;DHT22;34527;45.618;5.130;2023-07-31T09:45:35;22.50;99.90
48728;DHT22;34527;45.618;5.130;2023-07-31T09:48:11;22.50;99.90
48728;DHT22;34527;45.618;5.130;2023-07-31T09:50:38;22.60;99.90
48728;DHT22;34527;45.618;5.130;2023-07-31T09:53:08;22.70;99.90
48728;DHT22;34527;45.618;5.130;2023-07-31T09:55:34;22.80;99.90
48728;DHT22;34527;45.618;5.130;2023-07-31T09:58:05;22.80;99.90
48728;DHT22;34527;45.618;5.130;2023-07-31T10:00:31;22.90;99.90
48728;DHT22;34527;45.618;5.130;2023-07-31T10:03:05;23.10;99.90
48728;DHT22;34527;45.618;5.130;2023-07-31T10:05:39;23.10;99.90
48728;DHT22;34527;45.618;5.130;2023-07-31T10:08:07;23.10;99.90
48728;DHT22;34527;45.618;5.130;2023-07-31T10:10:36;23.30;99.90
48728;DHT22;34527;45.618;5.130;2023-07-31T10:13:02;23.30;99.90
48728;DHT22;34527;45.618;5.130;2023-07-31T10:15:28;23.30;99.90
48728;DHT22;34527;45.618;5.130;2023-07-31T10:17:55;23.40;99.90
48728;DHT22;34527;45.618;5.130;2023-07-31T10:20:21;23.50;99.90
48728;DHT22;34527;45.618;5.130;2023-07-31T10:22:48;23.50;99.90
48728;DHT22;34527;45.618;5.130;2023-07-31T10:25:15;23.40;99.90
48728;DHT22;34527;45.618;5.130;2023-07-31T10:27:42;23.50;99.90
48728;DHT22;34527;45.618;5.130;2023-07-31T10:30:11;23.60;99.90
48728;DHT22;34527;45.618;5.130;2023-07-31T10:32:40;23.70;99.90
48728;DHT22;34527;45.618;5.130;2023-07-31T10:35:07;23.80;99.90
48728;DHT22;34527;45.618;5.130;2023-07-31T10:37:41;24.00;99.90
48728;DHT22;34527;45.618;5.130;2023-07-31T10:40:11;24.10;99.90
48728;DHT22;34527;45.618;5.130;2023-07-31T10:42:47;24.10;99.90
48728;DHT22;34527;45.618;5.130;2023-07-31T10:45:14;24.30;99.90
48728;DHT22;34527;45.618;5.130;2023-07-31T10:47:44;24.20;99.90
48728;DHT22;34527;45.618;5.130;2023-07-31T10:50:21;24.00;99.90
48728;DHT22;34527;45.618;5.130;2023-07-31T10:52:52;24.10;99.90
48728;DHT22;34527;45.618;5.130;2023-07-31T10:55:26;23.90;99.90
48728;DHT22;34527;45.618;5.130;2023-07-31T10:57:56;24.10;99.90
48728;DHT22;34527;45.618;5.130;2023-07-31T11:00:29;24.20;99.90
48728;DHT22;34527;45.618;5.130;2023-07-31T11:03:15;24.20;99.90
48728;DHT22;34527;45.618;5.130;2023-07-31T11:08:31;24.10;99.90
48728;DHT22;34527;45.618;5.130;2023-07-31T11:13:51;24.50;99.90
48728;DHT22;34527;45.618;5.130;2023-07-31T11:16:20;24.70;99.90
48728;DHT22;34527;45.618;5.130;2023-07-31T11:18:47;24.60;99.90
48728;DHT22;34527;45.618;5.130;2023-07-31T11:21:20;24.50;99.90
48728;DHT22;34527;45.618;5.130;2023-07-31T11:23:51;24.60;99.90
48728;DHT22;34527;45.618;5.130;2023-07-31T11:26:17;24.70;99.90
48728;DHT22;34527;45.618;5.130;2023-07-31T11:28:46;24.60;99.90
48728;DHT22;34527;45.618;5.130;2023-07-31T11:31:11;24.70;99.90
48728;DHT22;34527;45.618;5.130;2023-07-31T11:33:37;24.70;99.90
48728;DHT22;34527;45.618;5.130;2023-07-31T11:36:03;24.90;99.90
48728;DHT22;34527;45.618;5.130;2023-07-31T11:38:31;25.10;99.90
48728;DHT22;34527;45.618;5.130;2023-07-31T11:40:59;25.10;99.90
48728;DHT22;34527;45.618;5.130;2023-07-31T11:43:26;25.00;99.90
48728;DHT22;34527;45.618;5.130;2023-07-31T11:45:54;25.10;99.90
48728;DHT22;34527;45.618;5.130;2023-07-31T11:48:25;25.30;99.90
48728;DHT22;34527;45.618;5.130;2023-07-31T11:50:53;25.40;99.90
48728;DHT22;34527;45.618;5.130;2023-07-31T11:53:33;25.40;99.90
48728;DHT22;34527;45.618;5.130;2023-07-31T11:56:01;25.40;99.90
48728;DHT22;34527;45.618;5.130;2023-07-31T11:58:33;25.40;99.90
48728;DHT22;34527;45.618;5.130;2023-07-31T12:01:00;25.30;99.90
48728;DHT22;34527;45.618;5.130;2023-07-31T12:03:26;25.30;99.90
48728;DHT22;34527;45.618;5.130;2023-07-31T12:05:53;25.40;99.90
48728;DHT22;34527;45.618;5.130;2023-07-31T12:08:21;25.40;99.90
48728;DHT22;34527;45.618;5.130;2023-07-31T12:10:50;25.50;99.90
48728;DHT22;34527;45.618;5.130;2023-07-31T12:13:26;25.50;99.90
48728;DHT22;34527;45.618;5.130;2023-07-31T12:15:59;25.30;99.90
48728;DHT22;34527;45.618;5.130;2023-07-31T12:18:27;25.30;99.90
48728;DHT22;34527;45.618;5.130;2023-07-31T12:20:57;25.40;99.90
48728;DHT22;34527;45.618;5.130;2023-07-31T12:23:29;25.60;99.90
48728;DHT22;34527;45.618;5.130;2023-07-31T12:26:16;25.80;99.90
48728;DHT22;34527;45.618;5.130;2023-07-31T12:28:47;25.70;99.90
48728;DHT22;34527;45.618;5.130;2023-07-31T12:31:21;25.60;99.90
48728;DHT22;34527;45.618;5.130;2023-07-31T12:33:49;25.70;99.90
48728;DHT22;34527;45.618;5.130;2023-07-31T12:36:22;25.70;99.90
48728;DHT22;34527;45.618;5.130;2023-07-31T12:38:48;25.60;99.90
48728;DHT22;34527;45.618;5.130;2023-07-31T12:41:15;25.70;99.90
48728;DHT22;34527;45.618;5.130;2023-07-31T12:43:42;25.80;99.90
48728;DHT22;34527;45.618;5.130;2023-07-31T12:46:08;25.90;99.90
48728;DHT22;34527;45.618;5.130;2023-07-31T12:48:34;25.90;99.90
48728;DHT22;34527;45.618;5.130;2023-07-31T12:51:00;25.80;99.90
48728;DHT22;34527;45.618;5.130;2023-07-31T12:53:25;25.90;99.90
48728;DHT22;34527;45.618;5.130;2023-07-31T12:55:51;25.90;99.90
48728;DHT22;34527;45.618;5.130;2023-07-31T12:58:17;26.30;99.90
48728;DHT22;34527;45.618;5.130;2023-07-31T13:00:42;26.50;99.90
48728;DHT22;34527;45.618;5.130;2023-07-31T13:03:08;26.60;99.90
48728;DHT22;34527;45.618;5.130;2023-07-31T13:05:34;26.40;99.90
48728;DHT22;34527;45.618;5.130;2023-07-31T13:08:00;26.60;99.90
48728;DHT22;34527;45.618;5.130;2023-07-31T13:10:26;26.60;99.90
48728;DHT22;34527;45.618;5.130;2023-07-31T13:12:52;26.60;99.90
48728;DHT22;34527;45.618;5.130;2023-07-31T13:15:18;26.50;99.90
48728;DHT22;34527;45.618;5.130;2023-07-31T13:17:44;26.50;99.90
48728;DHT22;34527;45.618;5.130;2023-07-31T13:20:10;26.40;99.90
48728;DHT22;34527;45.618;5.130;2023-07-31T13:22:35;26.40;99.90
48728;DHT22;34527;45.618;5.130;2023-07-31T13:25:01;26.40;99.90
48728;DHT22;34527;45.618;5.130;2023-07-31T13:27:26;26.40;99.90
48728;DHT22;34527;45.618;5.130;2023-07-31T13:29:52;26.40;99.90
48728;DHT22;34527;45.618;5.130;2023-07-31T13:32:18;26.30;99.90
48728;DHT22;34527;45.618;5.130;2023-07-31T13:34:45;26.40;99.90
48728;DHT22;34527;45.618;5.130;2023-07-31T13:37:11;26.40;99.90
48728;DHT22;34527;45.618;5.130;2023-07-31T13:39:36;26.40;99.90
48728;DHT22;34527;45.618;5.130;2023-07-31T13:42:07;26.60;99.90
48728;DHT22;34527;45.618;5.130;2023-07-31T13:44:34;26.60;99.90
48728;DHT22;34527;45.618;5.130;2023-07-31T13:47:00;26.60;99.90
48728;DHT22;34527;45.618;5.130;2023-07-31T13:49:26;26.60;99.90
48728;DHT22;34527;45.618;5.130;2023-07-31T13:51:52;26.60;99.90
48728;DHT22;34527;45.618;5.130;2023-07-31T13:54:17;26.90;99.90
48728;DHT22;34527;45.618;5.130;2023-07-31T13:56:44;27.00;99.90
48728;DHT22;34527;45.618;5.130;2023-07-31T13:59:10;26.90;99.90
48728;DHT22;34527;45.618;5.130;2023-07-31T14:01:36;26.70;99.90
48728;DHT22;34527;45.618;5.130;2023-07-31T14:04:01;26.80;99.90
48728;DHT22;34527;45.618;5.130;2023-07-31T14:06:27;26.80;99.90
48728;DHT22;34527;45.618;5.130;2023-07-31T14:08:53;26.90;99.90
48728;DHT22;34527;45.618;5.130;2023-07-31T14:11:19;26.80;99.90
48728;DHT22;34527;45.618;5.130;2023-07-31T14:13:44;26.80;99.90
48728;DHT22;34527;45.618;5.130;2023-07-31T14:16:10;26.80;99.90
48728;DHT22;34527;45.618;5.130;2023-07-31T14:18:35;26.80;99.90
48728;DHT22;34527;45.618;5.130;2023-07-31T14:21:01;26.60;99.90
48728;DHT22;34527;45.618;5.130;2023-07-31T14:23:26;26.90;99.90
48728;DHT22;34527;45.618;5.130;2023-07-31T14:25:52;27.00;99.90
48728;DHT22;34527;45.618;5.130;2023-07-31T14:28:18;27.00;99.90
48728;DHT22;34527;45.618;5.130;2023-07-31T14:30:43;27.00;99.90
48728;DHT22;34527;45.618;5.130;2023-07-31T14:33:09;26.90;99.90
48728;DHT22;34527;45.618;5.130;2023-07-31T14:35:35;26.90;99.90
48728;DHT22;34527;45.618;5.130;2023-07-31T14:38:01;27.00;99.90
48728;DHT22;34527;45.618;5.130;2023-07-31T14:40:26;27.30;99.90
48728;DHT22;34527;45.618;5.130;2023-07-31T14:42:52;27.60;99.90
48728;DHT22;34527;45.618;5.130;2023-07-31T14:45:18;27.70;99.90
48728;DHT22;34527;45.618;5.130;2023-07-31T14:47:44;27.90;99.90
48728;DHT22;34527;45.618;5.130;2023-07-31T14:50:09;28.00;99.90
48728;DHT22;34527;45.618;5.130;2023-07-31T14:52:35;28.10;99.90
48728;DHT22;34527;45.618;5.130;2023-07-31T14:55:01;28.10;99.90
48728;DHT22;34527;45.618;5.130;2023-07-31T14:57:26;28.10;99.90
48728;DHT22;34527;45.618;5.130;2023-07-31T14:59:52;28.10;99.90
48728;DHT22;34527;45.618;5.130;2023-07-31T15:02:18;28.00;99.90
48728;DHT22;34527;45.618;5.130;2023-07-31T15:04:43;27.60;99.90
48728;DHT22;34527;45.618;5.130;2023-07-31T15:07:09;27.60;99.90
48728;DHT22;34527;45.618;5.130;2023-07-31T15:09:34;27.20;99.90
48728;DHT22;34527;45.618;5.130;2023-07-31T15:12:00;27.50;99.90
48728;DHT22;34527;45.618;5.130;2023-07-31T15:14:26;27.40;99.90
48728;DHT22;34527;45.618;5.130;2023-07-31T15:16:53;27.40;99.90
48728;DHT22;34527;45.618;5.130;2023-07-31T15:19:18;27.30;99.90
48728;DHT22;34527;45.618;5.130;2023-07-31T15:21:44;27.40;99.90
48728;DHT22;34527;45.618;5.130;2023-07-31T15:24:10;27.40;99.90
48728;DHT22;34527;45.618;5.130;2023-07-31T15:26:37;27.20;99.90
48728;DHT22;34527;45.618;5.130;2023-07-31T15:29:05;27.00;99.90
48728;DHT22;34527;45.618;5.130;2023-07-31T15:31:34;26.90;99.90
48728;DHT22;34527;45.618;5.130;2023-07-31T15:34:00;26.80;99.90
48728;DHT22;34527;45.618;5.130;2023-07-31T15:36:26;26.90;99.90
48728;DHT22;34527;45.618;5.130;2023-07-31T15:38:51;27.00;99.90
48728;DHT22;34527;45.618;5.130;2023-07-31T15:41:18;27.00;99.90